Time;durP1;ratioP1;P1;durP2;ratioP2;P2;SDS_P1;SDS_P2;PMS_P1;PMS_P2;Temp;Humidity;BMP_temperature;BMP_pressure;BME280_temperature;BME280_humidity;BME280_pressure;Samples;Min_cycle;Max_cycle;Signal;HPM_P1;HPM_P2
2023/02/27 00:01:33;;;;;;;4.35;2.42;;;;;;;;;;10028805;28;20046;-70
2023/02/27 00:06:27;;;;;;;2.53;2.30;;;;;;;;;;10027625;28;20473;-70
2023/02/27 00:11:20;;;;;;;2.63;2.42;;;;;;;;;;10017165;28;20034;-69
2023/02/27 00:16:14;;;;;;;7.10;3.72;;;;;;;;;;10028027;28;20049;-70
2023/02/27 00:21:07;;;;;;;6.70;3.13;;;;;;;;;;10023389;28;20463;-71
2023/02/27 00:26:00;;;;;;;4.13;2.47;;;;;;;;;;10029193;28;20081;-71
2023/02/27 00:30:54;;;;;;;7.57;3.25;;;;;;;;;;10028149;28;20057;-71
2023/02/27 00:35:57;;;;;;;5.60;2.75;;;;;;;;;;10029009;28;20543;-71
2023/02/27 00:40:51;;;;;;;5.45;3.00;;;;;;;;;;10014749;28;20153;-72
2023/02/27 00:45:45;;;;;;;3.90;2.60;;;;;;;;;;10022473;28;20049;-73
2023/02/27 00:50:38;;;;;;;2.50;2.15;;;;;;;;;;10027598;28;20058;-72
2023/02/27 00:55:31;;;;;;;2.72;2.35;;;;;;;;;;10028401;28;20081;-71
2023/02/27 01:00:24;;;;;;;5.00;2.60;;;;;;;;;;10019942;28;20041;-70
2023/02/27 01:05:17;;;;;;;2.38;2.17;;;;;;;;;;10027305;28;20053;-70
2023/02/27 01:10:12;;;;;;;2.88;2.50;;;;;;;;;;10025896;28;20058;-70
2023/02/27 01:15:07;;;;;;;2.33;2.13;;;;;;;;;;10026345;28;20054;-70
2023/02/27 01:20:00;;;;;;;4.97;2.63;;;;;;;;;;10025263;28;20054;-70
2023/02/27 01:24:55;;;;;;;2.75;2.55;;;;;;;;;;10025036;28;20058;-68
2023/02/27 01:29:48;;;;;;;5.93;2.22;;;;;;;;;;10014622;28;20096;-69
2023/02/27 01:34:43;;;;;;;3.35;2.83;;;;;;;;;;10004168;28;20483;-69
2023/02/27 01:39:37;;;;;;;2.30;2.10;;;;;;;;;;10012102;28;20426;-69
2023/02/27 01:44:31;;;;;;;5.57;2.95;;;;;;;;;;10004339;28;20092;-69
2023/02/27 01:49:27;;;;;;;5.03;3.17;;;;;;;;;;10011885;28;20057;-69
2023/02/27 01:54:24;;;;;;;4.07;2.83;;;;;;;;;;10018452;28;20042;-69
2023/02/27 01:59:17;;;;;;;4.68;2.97;;;;;;;;;;10011680;28;20042;-69
2023/02/27 02:04:22;;;;;;;6.82;2.67;;;;;;;;;;10014074;28;20046;-69
2023/02/27 02:09:22;;;;;;;6.43;2.60;;;;;;;;;;10015227;28;20072;-70
2023/02/27 02:14:15;;;;;;;4.90;2.60;;;;;;;;;;10004387;28;20069;-69
2023/02/27 02:19:07;;;;;;;6.63;2.50;;;;;;;;;;10009483;28;20065;-68
2023/02/27 02:24:08;;;;;;;7.75;3.33;;;;;;;;;;10010602;28;20054;-69
2023/02/27 02:29:18;;;;;;;5.43;2.83;;;;;;;;;;9996751;28;20054;-68
2023/02/27 02:34:32;;;;;;;3.10;2.55;;;;;;;;;;10013697;28;20093;-68
2023/02/27 02:39:54;;;;;;;2.67;2.47;;;;;;;;;;10014144;28;20060;-68
2023/02/27 02:44:49;;;;;;;7.20;4.13;;;;;;;;;;10017078;28;20042;-69
2023/02/27 02:49:48;;;;;;;3.00;2.60;;;;;;;;;;10024662;28;20458;-69
2023/02/27 02:55:07;;;;;;;7.57;3.63;;;;;;;;;;10014113;28;20037;-69
2023/02/27 03:00:07;;;;;;;5.30;2.53;;;;;;;;;;10019944;28;20045;-69
2023/02/27 03:05:07;;;;;;;4.55;2.53;;;;;;;;;;10018979;28;20464;-69
2023/02/27 03:10:07;;;;;;;3.03;2.35;;;;;;;;;;10017247;28;20046;-68
2023/02/27 03:15:21;;;;;;;4.43;3.03;;;;;;;;;;10001298;28;20084;-68
2023/02/27 03:20:38;;;;;;;4.63;2.72;;;;;;;;;;10018231;28;20169;-68
2023/02/27 03:25:38;;;;;;;5.75;3.92;;;;;;;;;;10016714;28;20046;-68
2023/02/27 03:30:37;;;;;;;5.63;3.13;;;;;;;;;;10002384;28;20452;-68
2023/02/27 03:35:49;;;;;;;4.93;2.85;;;;;;;;;;10016150;28;20038;-68
2023/02/27 03:41:19;;;;;;;4.15;2.90;;;;;;;;;;10012917;28;20145;-68
2023/02/27 03:46:22;;;;;;;10.60;4.43;;;;;;;;;;10016804;28;20042;-68
2023/02/27 03:51:18;;;;;;;4.00;3.25;;;;;;;;;;9993285;28;20133;-68
2023/02/27 03:56:13;;;;;;;7.45;4.47;;;;;;;;;;10005477;28;20061;-68
2023/02/27 04:01:06;;;;;;;2.67;2.47;;;;;;;;;;10011808;28;20054;-68
2023/02/27 04:07:21;;;;;;;4.72;3.13;;;;;;;;;;10007439;28;20418;-68
2023/02/27 04:11:26;;;;;;;5.80;3.30;;;;;;;;;;10016733;28;20042;-68
2023/02/27 04:17:15;;;;;;;5.97;3.63;;;;;;;;;;10025668;28;20390;-68
2023/02/27 04:22:33;;;;;;;4.18;2.95;;;;;;;;;;9977384;28;20054;-68
2023/02/27 04:27:38;;;;;;;2.92;2.53;;;;;;;;;;10019127;28;20057;-70
2023/02/27 04:32:38;;;;;;;7.28;2.88;;;;;;;;;;10019083;28;20069;-70
2023/02/27 04:37:37;;;;;;;4.53;2.67;;;;;;;;;;10027327;28;20057;-70
2023/02/27 04:42:32;;;;;;;5.53;3.20;;;;;;;;;;10027173;28;20450;-70
2023/02/27 04:47:27;;;;;;;3.08;2.50;;;;;;;;;;10026208;28;20439;-70
2023/02/27 04:52:31;;;;;;;6.90;3.20;;;;;;;;;;10024744;28;20049;-70
2023/02/27 04:57:33;;;;;;;4.68;3.17;;;;;;;;;;10025626;28;20475;-70
2023/02/27 05:02:28;;;;;;;5.50;3.28;;;;;;;;;;10027012;28;20108;-70
2023/02/27 05:07:26;;;;;;;10.73;2.83;;;;;;;;;;10021798;28;20137;-70
2023/02/27 05:12:50;;;;;;;2.80;2.20;;;;;;;;;;10025772;28;20050;-70
2023/02/27 05:17:43;;;;;;;5.55;3.22;;;;;;;;;;10026894;28;20050;-70
2023/02/27 05:22:46;;;;;;;10.32;3.53;;;;;;;;;;10026752;28;20565;-70
2023/02/27 05:27:48;;;;;;;7.18;3.13;;;;;;;;;;10025018;28;20054;-70
2023/02/27 05:32:46;;;;;;;9.88;3.10;;;;;;;;;;10020982;28;20045;-69
2023/02/27 05:37:52;;;;;;;4.78;2.80;;;;;;;;;;10014082;28;20462;-69
2023/02/27 05:42:54;;;;;;;3.58;2.92;;;;;;;;;;10007251;28;20407;-70
2023/02/27 05:47:55;;;;;;;7.82;3.05;;;;;;;;;;10021510;28;20061;-70
2023/02/27 05:52:50;;;;;;;6.75;3.63;;;;;;;;;;10024891;28;20073;-70
2023/02/27 05:57:49;;;;;;;4.32;3.20;;;;;;;;;;10025219;28;20057;-69
2023/02/27 06:02:44;;;;;;;4.18;3.38;;;;;;;;;;10024008;28;20077;-69
2023/02/27 06:07:38;;;;;;;4.82;3.05;;;;;;;;;;10023964;28;20495;-69
2023/02/27 06:12:31;;;;;;;4.53;2.80;;;;;;;;;;10024618;28;20041;-69
2023/02/27 06:17:24;;;;;;;11.95;4.35;;;;;;;;;;10033521;28;20057;-72
2023/02/27 06:22:18;;;;;;;3.80;3.30;;;;;;;;;;10030180;28;20089;-71
2023/02/27 06:27:12;;;;;;;4.00;2.70;;;;;;;;;;10027546;28;20061;-71
2023/02/27 06:32:05;;;;;;;5.95;3.50;;;;;;;;;;10029526;28;20057;-70
2023/02/27 06:36:59;;;;;;;4.22;3.03;;;;;;;;;;10017202;28;20042;-70
2023/02/27 06:41:56;;;;;;;5.65;3.13;;;;;;;;;;10029425;28;20061;-70
2023/02/27 06:46:48;;;;;;;6.13;3.35;;;;;;;;;;10021307;28;20045;-81
2023/02/27 06:51:42;;;;;;;7.20;3.88;;;;;;;;;;10011081;28;20113;-70
2023/02/27 06:56:36;;;;;;;6.82;3.45;;;;;;;;;;10031659;28;20057;-69
2023/02/27 07:01:30;;;;;;;6.72;3.42;;;;;;;;;;10024009;28;20056;-70
2023/02/27 07:06:24;;;;;;;4.50;3.58;;;;;;;;;;10031296;28;20054;-69
2023/02/27 07:11:38;;;;;;;11.23;4.45;;;;;;;;;;10030838;28;20070;-70
2023/02/27 07:16:32;;;;;;;8.73;4.45;;;;;;;;;;10031839;28;20479;-69
2023/02/27 07:21:25;;;;;;;4.20;3.65;;;;;;;;;;10030254;28;20133;-63
2023/02/27 07:26:17;;;;;;;8.48;4.28;;;;;;;;;;10024486;28;20041;-65
2023/02/27 07:31:11;;;;;;;9.07;5.70;;;;;;;;;;10030214;28;20077;-64
2023/02/27 07:36:05;;;;;;;4.07;3.67;;;;;;;;;;10030595;28;20081;-65
2023/02/27 07:40:59;;;;;;;4.63;3.25;;;;;;;;;;10025612;28;20058;-65
2023/02/27 07:45:51;;;;;;;5.47;3.42;;;;;;;;;;10028009;28;20568;-65
2023/02/27 07:50:45;;;;;;;11.50;3.80;;;;;;;;;;10026222;28;20065;-65
2023/02/27 07:55:38;;;;;;;4.90;3.10;;;;;;;;;;10027464;28;20495;-65
2023/02/27 08:00:31;;;;;;;5.30;4.00;;;;;;;;;;10029157;28;20057;-65
2023/02/27 08:05:25;;;;;;;6.63;3.63;;;;;;;;;;10027691;28;20089;-65
2023/02/27 08:10:19;;;;;;;5.00;3.17;;;;;;;;;;10022122;28;20080;-65
2023/02/27 08:15:11;;;;;;;8.68;4.20;;;;;;;;;;10029494;28;20061;-65
2023/02/27 08:20:06;;;;;;;6.40;3.65;;;;;;;;;;10028125;28;20140;-65
2023/02/27 08:25:00;;;;;;;6.07;4.10;;;;;;;;;;10028942;28;20141;-65
2023/02/27 08:29:54;;;;;;;12.55;3.85;;;;;;;;;;10031292;28;20058;-65
2023/02/27 08:34:48;;;;;;;4.43;3.03;;;;;;;;;;10026344;28;20116;-64
2023/02/27 08:39:41;;;;;;;11.73;3.58;;;;;;;;;;10014301;28;20054;-64
2023/02/27 08:44:34;;;;;;;7.47;3.22;;;;;;;;;;10023072;28;20073;-65
2023/02/27 08:49:28;;;;;;;6.07;4.65;;;;;;;;;;10026747;28;20434;-64
2023/02/27 08:54:22;;;;;;;7.80;3.42;;;;;;;;;;10027251;28;20128;-65
2023/02/27 08:59:15;;;;;;;6.18;4.78;;;;;;;;;;10027051;28;20054;-65
2023/02/27 09:04:09;;;;;;;8.90;4.32;;;;;;;;;;10010861;28;20054;-64
2023/02/27 09:09:03;;;;;;;7.22;3.67;;;;;;;;;;10004897;28;20452;-68
2023/02/27 09:13:57;;;;;;;5.10;3.42;;;;;;;;;;10006961;28;20136;-69
2023/02/27 09:18:51;;;;;;;8.90;5.35;;;;;;;;;;10010175;28;20052;-69
2023/02/27 09:23:44;;;;;;;15.82;6.88;;;;;;;;;;10018317;28;20049;-68
2023/02/27 09:28:38;;;;;;;14.32;7.30;;;;;;;;;;10009969;28;20388;-68
2023/02/27 09:33:34;;;;;;;9.25;4.80;;;;;;;;;;10017586;28;20049;-68
2023/02/27 09:38:27;;;;;;;12.63;5.05;;;;;;;;;;10026064;28;20050;-68
2023/02/27 09:43:25;;;;;;;6.35;4.80;;;;;;;;;;10026012;28;20455;-68
2023/02/27 09:48:33;;;;;;;;;;;;;;;;;;10024642;28;20053;-66
2023/02/27 09:53:31;;;;;;;6.43;4.05;;;;;;;;;;10024249;28;19968;-68
2023/02/27 09:58:48;;;;;;;11.57;5.72;;;;;;;;;;10023705;28;20441;-68
2023/02/27 10:04:17;;;;;;;14.02;5.63;;;;;;;;;;10024288;28;20053;-68
2023/02/27 10:09:19;;;;;;;8.93;4.85;;;;;;;;;;10018942;28;20553;-69
2023/02/27 10:14:24;;;;;;;15.82;6.57;;;;;;;;;;10025444;28;20060;-68
2023/02/27 10:19:25;;;;;;;8.88;5.13;;;;;;;;;;10017138;28;20104;-68
2023/02/27 10:24:37;;;;;;;6.82;4.95;;;;;;;;;;10023070;28;20120;-68
2023/02/27 10:29:31;;;;;;;16.60;6.55;;;;;;;;;;10011826;28;20065;-69
2023/02/27 10:34:24;;;;;;;13.55;5.53;;;;;;;;;;10017326;28;20096;-68
2023/02/27 10:39:19;;;;;;;9.13;5.28;;;;;;;;;;10025196;28;20565;-68
2023/02/27 10:44:20;;;;;;;8.73;5.25;;;;;;;;;;10015908;28;20057;-68
2023/02/27 10:49:17;;;;;;;12.88;7.43;;;;;;;;;;10021951;28;20046;-68
2023/02/27 10:54:23;;;;;;;13.35;7.00;;;;;;;;;;10012739;28;20054;-68
2023/02/27 10:59:22;;;;;;;12.75;6.82;;;;;;;;;;10024296;28;20116;-68
2023/02/27 11:04:32;;;;;;;14.45;8.80;;;;;;;;;;10029407;28;20057;-68
2023/02/27 11:09:32;;;;;;;16.92;10.43;;;;;;;;;;10024818;28;20049;-68
2023/02/27 11:14:48;;;;;;;27.15;10.82;;;;;;;;;;10030692;28;20045;-68
2023/02/27 11:19:41;;;;;;;17.60;12.35;;;;;;;;;;10030570;28;20050;-68
2023/02/27 11:24:35;;;;;;;12.95;10.23;;;;;;;;;;10021928;28;20120;-68
2023/02/27 11:29:28;;;;;;;22.45;11.98;;;;;;;;;;10030167;28;20049;-68
2023/02/27 11:34:26;;;;;;;16.23;11.15;;;;;;;;;;10030438;28;20080;-68
2023/02/27 11:39:45;;;;;;;16.40;10.27;;;;;;;;;;10026293;28;20050;-68
2023/02/27 11:45:05;;;;;;;20.33;14.13;;;;;;;;;;9998093;28;20050;-68
2023/02/27 11:50:07;;;;;;;14.82;11.45;;;;;;;;;;10012779;28;20050;-68
2023/02/27 11:55:03;;;;;;;30.35;18.58;;;;;;;;;;10011925;28;20565;-69
2023/02/27 12:00:18;;;;;;;15.15;10.73;;;;;;;;;;10019782;28;20050;-69
2023/02/27 12:05:19;;;;;;;11.52;8.82;;;;;;;;;;10029092;28;20503;-68
2023/02/27 12:10:31;;;;;;;13.98;9.38;;;;;;;;;;10026032;28;20080;-68
2023/02/27 12:15:45;;;;;;;66.22;46.90;;;;;;;;;;10018407;28;20158;-69
2023/02/27 12:20:53;;;;;;;16.13;9.80;;;;;;;;;;10026017;28;20053;-69
2023/02/27 12:25:51;;;;;;;15.82;10.95;;;;;;;;;;10023428;28;20042;-69
2023/02/27 12:31:18;;;;;;;15.88;10.45;;;;;;;;;;10042184;28;20108;-68
2023/02/27 12:36:12;;;;;;;14.45;8.77;;;;;;;;;;10026674;28;20046;-69
2023/02/27 12:41:25;;;;;;;15.40;9.60;;;;;;;;;;10027726;28;20049;-69
2023/02/27 12:46:38;;;;;;;13.55;8.75;;;;;;;;;;10008839;28;20050;-68
2023/02/27 12:51:56;;;;;;;12.07;8.95;;;;;;;;;;10027770;28;20066;-69
2023/02/27 12:57:38;;;;;;;33.72;28.92;;;;;;;;;;10027006;28;20054;-68
2023/02/27 13:03:01;;;;;;;13.50;10.18;;;;;;;;;;9970761;28;20125;-69
2023/02/27 13:07:54;;;;;;;14.15;10.65;;;;;;;;;;10027023;28;20061;-69
2023/02/27 13:13:16;;;;;;;14.50;11.25;;;;;;;;;;10026195;28;20081;-68
2023/02/27 13:18:29;;;;;;;11.85;8.52;;;;;;;;;;10021180;28;20486;-68
2023/02/27 13:23:42;;;;;;;11.90;7.63;;;;;;;;;;10023193;28;20526;-68
2023/02/27 13:28:34;;;;;;;12.57;8.38;;;;;;;;;;10024291;28;20084;-67
2023/02/27 13:33:41;;;;;;;14.38;8.27;;;;;;;;;;10021711;28;20058;-68
2023/02/27 13:38:54;;;;;;;17.83;10.98;;;;;;;;;;10024051;28;20081;-68
2023/02/27 13:43:57;;;;;;;16.15;10.48;;;;;;;;;;10019490;28;20076;-67
2023/02/27 13:48:54;;;;;;;18.67;11.98;;;;;;;;;;10021954;28;20049;-67
2023/02/27 13:53:47;;;;;;;12.48;9.80;;;;;;;;;;10025736;28;20088;-67
2023/02/27 13:58:41;;;;;;;16.58;10.85;;;;;;;;;;10018213;28;20061;-68
2023/02/27 14:03:34;;;;;;;12.13;9.57;;;;;;;;;;10011455;28;20038;-69
2023/02/27 14:08:32;;;;;;;16.17;11.55;;;;;;;;;;10026327;28;20054;-68
2023/02/27 14:13:44;;;;;;;17.85;10.63;;;;;;;;;;10009987;28;20112;-68
2023/02/27 14:18:59;;;;;;;15.55;9.63;;;;;;;;;;10021822;28;20057;-68
2023/02/27 14:23:53;;;;;;;14.70;11.10;;;;;;;;;;10023009;28;20057;-68
2023/02/27 14:28:54;;;;;;;10.80;9.45;;;;;;;;;;10014802;28;20075;-68
2023/02/27 14:33:53;;;;;;;14.13;9.25;;;;;;;;;;10024139;28;20395;-68
2023/02/27 14:38:47;;;;;;;;;;;;;;;;;;10031919;28;20080;-68
2023/02/27 14:43:53;;;;;;;13.52;9.02;;;;;;;;;;10026827;28;20259;-68
2023/02/27 14:48:53;;;;;;;14.18;7.30;;;;;;;;;;10031415;28;20487;-68
2023/02/27 14:53:59;;;;;;;13.18;7.45;;;;;;;;;;10023522;28;20499;-68
2023/02/27 14:58:55;;;;;;;12.13;8.15;;;;;;;;;;10030499;28;20058;-68
2023/02/27 15:03:57;;;;;;;11.50;7.18;;;;;;;;;;10031616;28;20046;-68
2023/02/27 15:08:52;;;;;;;11.27;7.82;;;;;;;;;;10030991;28;20479;-68
2023/02/27 15:13:47;;;;;;;33.13;21.90;;;;;;;;;;10018239;28;20061;-68
2023/02/27 15:18:40;;;;;;;11.73;8.48;;;;;;;;;;10031073;28;20458;-68
2023/02/27 15:23:34;;;;;;;11.95;9.55;;;;;;;;;;10030767;28;20057;-68
2023/02/27 15:28:35;;;;;;;18.05;12.27;;;;;;;;;;10026629;28;20046;-67
2023/02/27 15:33:30;;;;;;;14.00;9.23;;;;;;;;;;10025361;28;20049;-67
2023/02/27 15:38:32;;;;;;;10.55;7.47;;;;;;;;;;10025183;28;20498;-67
2023/02/27 15:43:27;;;;;;;25.25;15.35;;;;;;;;;;10024493;28;20074;-67
2023/02/27 15:48:21;;;;;;;10.43;8.15;;;;;;;;;;10022933;28;20046;-67
2023/02/27 15:53:19;;;;;;;11.00;7.60;;;;;;;;;;10028524;28;20120;-67
2023/02/27 15:58:27;;;;;;;34.33;20.27;;;;;;;;;;10026827;28;20141;-67
2023/02/27 16:03:23;;;;;;;12.10;8.73;;;;;;;;;;10028580;28;20711;-67
2023/02/27 16:08:18;;;;;;;20.25;11.52;;;;;;;;;;10028857;28;20050;-67
2023/02/27 16:13:29;;;;;;;11.27;9.25;;;;;;;;;;10029066;28;20107;-67
2023/02/27 16:18:30;;;;;;;18.73;11.95;;;;;;;;;;10027342;28;20108;-67
2023/02/27 16:23:28;;;;;;;18.08;11.38;;;;;;;;;;10028440;28;20053;-67
2023/02/27 16:28:20;;;;;;;17.50;9.00;;;;;;;;;;10028459;28;20546;-67
2023/02/27 16:33:20;;;;;;;11.85;9.27;;;;;;;;;;10022089;28;20065;-67
2023/02/27 16:38:13;;;;;;;15.88;10.50;;;;;;;;;;10025905;28;20407;-67
2023/02/27 16:43:07;;;;;;;13.73;9.30;;;;;;;;;;10026314;28;20060;-67
2023/02/27 16:48:00;;;;;;;14.38;11.15;;;;;;;;;;10024723;28;20050;-68
2023/02/27 16:52:54;;;;;;;11.43;7.90;;;;;;;;;;10025207;28;20061;-67
2023/02/27 16:57:47;;;;;;;13.38;9.63;;;;;;;;;;10025489;28;20038;-68
2023/02/27 17:02:39;;;;;;;15.38;9.52;;;;;;;;;;10022218;28;20125;-68
2023/02/27 17:07:32;;;;;;;15.07;10.20;;;;;;;;;;10025295;28;20108;-68
2023/02/27 17:12:25;;;;;;;17.80;9.90;;;;;;;;;;10026307;28;20096;-68
2023/02/27 17:17:18;;;;;;;12.45;10.10;;;;;;;;;;10024226;28;20041;-68
2023/02/27 17:22:13;;;;;;;15.85;9.98;;;;;;;;;;10025326;28;20108;-68
2023/02/27 17:27:08;;;;;;;16.02;13.65;;;;;;;;;;10032734;28;20058;-68
2023/02/27 17:32:01;;;;;;;16.23;13.02;;;;;;;;;;10025432;28;20058;-68
2023/02/27 17:36:54;;;;;;;20.25;14.65;;;;;;;;;;10027135;28;20052;-68
2023/02/27 17:41:47;;;;;;;17.65;14.43;;;;;;;;;;10024334;28;20053;-69
2023/02/27 17:46:41;;;;;;;20.73;13.27;;;;;;;;;;10016140;28;20073;-67
2023/02/27 17:51:34;;;;;;;18.67;12.80;;;;;;;;;;10015930;28;20110;-68
2023/02/27 17:56:28;;;;;;;17.08;13.98;;;;;;;;;;10024407;28;20046;-69
2023/02/27 18:01:24;;;;;;;15.50;11.50;;;;;;;;;;10024177;28;20125;-68
2023/02/27 18:06:18;;;;;;;19.15;14.73;;;;;;;;;;10020440;28;20055;-69
2023/02/27 18:11:14;;;;;;;13.07;11.63;;;;;;;;;;10027181;28;20121;-67
2023/02/27 18:16:09;;;;;;;33.83;19.08;;;;;;;;;;10032706;28;20475;-68
2023/02/27 18:21:36;;;;;;;15.50;11.57;;;;;;;;;;10030770;28;20046;-68
2023/02/27 18:26:31;;;;;;;21.27;12.43;;;;;;;;;;10026231;28;20434;-68
2023/02/27 18:31:27;;;;;;;21.80;13.43;;;;;;;;;;10022963;28;20056;-68
2023/02/27 18:36:22;;;;;;;20.00;17.17;;;;;;;;;;10032453;28;20045;-68
2023/02/27 18:41:16;;;;;;;16.42;14.02;;;;;;;;;;10031565;28;20533;-71
2023/02/27 18:46:11;;;;;;;28.70;22.95;;;;;;;;;;10025612;28;20050;-67
2023/02/27 18:51:08;;;;;;;28.13;21.42;;;;;;;;;;10024019;28;20074;-67
2023/02/27 18:56:05;;;;;;;20.05;15.63;;;;;;;;;;10030973;28;20057;-70
2023/02/27 19:01:00;;;;;;;28.13;16.35;;;;;;;;;;10022745;28;20053;-67
2023/02/27 19:05:56;;;;;;;21.63;11.70;;;;;;;;;;10023994;28;20042;-70
2023/02/27 19:10:50;;;;;;;18.90;14.68;;;;;;;;;;10025795;28;20053;-69
2023/02/27 19:15:44;;;;;;;14.30;12.13;;;;;;;;;;10022785;28;20042;-64
2023/02/27 19:20:37;;;;;;;20.25;13.30;;;;;;;;;;10017343;28;20053;-65
2023/02/27 19:25:31;;;;;;;27.25;20.80;;;;;;;;;;10018766;28;20148;-66
2023/02/27 19:30:25;;;;;;;35.13;26.13;;;;;;;;;;10022175;28;20081;-65
2023/02/27 19:35:19;;;;;;;30.70;24.20;;;;;;;;;;10025895;28;20430;-67
2023/02/27 19:40:14;;;;;;;25.58;20.85;;;;;;;;;;10027208;28;20503;-66
2023/02/27 19:45:09;;;;;;;22.05;16.10;;;;;;;;;;10026829;28;20057;-66
2023/02/27 19:50:04;;;;;;;19.83;17.40;;;;;;;;;;10021033;28;20491;-65
2023/02/27 19:54:58;;;;;;;22.92;17.63;;;;;;;;;;10034905;28;20046;-66
2023/02/27 19:59:53;;;;;;;20.10;15.18;;;;;;;;;;10017106;28;20077;-67
2023/02/27 20:04:47;;;;;;;25.90;16.15;;;;;;;;;;10010057;28;20124;-65
2023/02/27 20:09:40;;;;;;;25.42;16.63;;;;;;;;;;9998578;28;20141;-65
2023/02/27 20:14:35;;;;;;;24.25;15.95;;;;;;;;;;10009148;28;20128;-66
2023/02/27 20:19:28;;;;;;;27.45;20.73;;;;;;;;;;10014538;28;20049;-65
2023/02/27 20:24:23;;;;;;;20.23;14.90;;;;;;;;;;9998083;28;20100;-64
2023/02/27 20:29:19;;;;;;;17.67;13.75;;;;;;;;;;10008378;28;20053;-66
2023/02/27 20:34:14;;;;;;;18.00;9.68;;;;;;;;;;10019817;28;20046;-65
2023/02/27 20:39:11;;;;;;;16.20;10.02;;;;;;;;;;10019948;28;20100;-65
2023/02/27 20:44:07;;;;;;;17.25;9.68;;;;;;;;;;10009229;28;20130;-66
2023/02/27 20:49:02;;;;;;;13.38;9.38;;;;;;;;;;10010055;28;20046;-66
2023/02/27 20:53:58;;;;;;;12.15;8.15;;;;;;;;;;10011268;28;20133;-66
2023/02/27 20:58:50;;;;;;;12.98;8.43;;;;;;;;;;10014796;28;20060;-68
2023/02/27 21:03:45;;;;;;;12.73;10.00;;;;;;;;;;10010795;28;20092;-68
2023/02/27 21:08:39;;;;;;;11.98;8.45;;;;;;;;;;10014854;28;20121;-68
2023/02/27 21:13:35;;;;;;;15.27;8.43;;;;;;;;;;10020307;28;20053;-68
2023/02/27 21:18:28;;;;;;;14.65;8.73;;;;;;;;;;10011775;28;20104;-68
2023/02/27 21:23:21;;;;;;;13.60;9.73;;;;;;;;;;10009921;28;20172;-67
2023/02/27 21:28:15;;;;;;;13.73;10.00;;;;;;;;;;10013787;28;20073;-67
2023/02/27 21:33:09;;;;;;;14.23;10.23;;;;;;;;;;10003288;28;20066;-67
2023/02/27 21:38:02;;;;;;;13.20;9.30;;;;;;;;;;10010356;28;20045;-67
2023/02/27 21:42:56;;;;;;;16.73;10.15;;;;;;;;;;10018161;28;20045;-68
2023/02/27 21:47:49;;;;;;;12.15;9.95;;;;;;;;;;10011432;28;20045;-67
2023/02/27 21:52:43;;;;;;;20.13;12.32;;;;;;;;;;10016518;28;20466;-68
2023/02/27 21:57:38;;;;;;;13.40;11.40;;;;;;;;;;10016927;28;20087;-67
2023/02/27 22:02:31;;;;;;;17.65;12.02;;;;;;;;;;10011847;28;20483;-68
2023/02/27 22:07:25;;;;;;;19.55;10.55;;;;;;;;;;10011928;28;20056;-68
2023/02/27 22:12:18;;;;;;;12.95;10.93;;;;;;;;;;10011884;28;20104;-68
2023/02/27 22:17:12;;;;;;;16.15;11.05;;;;;;;;;;10001636;28;20077;-68
2023/02/27 22:22:05;;;;;;;12.65;10.30;;;;;;;;;;10003390;28;20053;-68
2023/02/27 22:26:59;;;;;;;17.98;11.32;;;;;;;;;;10011237;28;20083;-68
2023/02/27 22:31:53;;;;;;;26.60;16.80;;;;;;;;;;10012660;28;20088;-69
2023/02/27 22:36:50;;;;;;;15.45;11.57;;;;;;;;;;10005620;28;20138;-69
2023/02/27 22:41:44;;;;;;;20.05;13.18;;;;;;;;;;10013011;28;20088;-69
2023/02/27 22:46:39;;;;;;;22.27;12.73;;;;;;;;;;10024360;28;20106;-68
2023/02/27 22:51:33;;;;;;;19.83;11.98;;;;;;;;;;10025333;28;20069;-69
2023/02/27 22:56:28;;;;;;;12.68;10.63;;;;;;;;;;10025761;28;20073;-69
2023/02/27 23:01:24;;;;;;;12.93;9.90;;;;;;;;;;10031519;28;20060;-68
2023/02/27 23:06:20;;;;;;;17.58;11.50;;;;;;;;;;10032091;28;20054;-69
2023/02/27 23:11:17;;;;;;;14.32;11.23;;;;;;;;;;10031758;28;20066;-69
2023/02/27 23:16:12;;;;;;;13.68;10.38;;;;;;;;;;10031645;28;20077;-69
2023/02/27 23:21:05;;;;;;;15.18;11.27;;;;;;;;;;10031197;28;20073;-69
2023/02/27 23:26:00;;;;;;;15.75;11.05;;;;;;;;;;10023775;28;20073;-69
2023/02/27 23:30:54;;;;;;;12.05;9.52;;;;;;;;;;10029261;28;20061;-69
2023/02/27 23:35:48;;;;;;;12.05;10.20;;;;;;;;;;10023602;28;20093;-69
2023/02/27 23:40:41;;;;;;;15.65;11.90;;;;;;;;;;10021777;28;20056;-69
2023/02/27 23:45:34;;;;;;;18.23;11.18;;;;;;;;;;10020529;28;20057;-69
2023/02/27 23:50:30;;;;;;;16.20;10.70;;;;;;;;;;10030151;28;20068;-69
2023/02/27 23:55:23;;;;;;;14.23;9.27;;;;;;;;;;10030719;28;20042;-70
